MAPA DE AEROPUERTO

INFORMACIÓN METAR y TAF


Deprecated: The each() function is deprecated. This message will be suppressed on further calls in /home/customer/www/clickair-va.com/public_html/VAM/vam/helpers/get_metar.php on line 20
METAR FOR LEVC
ADDS - METARS form results

(0752 UTC 07 July 2022)
Data provider http://aviationweather.gov/metar/data/
 
METAR text: LEVC 070730Z 30003KT 240V340 9999 FEW035 25/15 Q1022 NOSIG
Conditions at: LEVC (VALENCIA (CIV/MI, ES) observed 0730 UTC 07 July 2022
Temperature: 25.0°C (77°F)
Dewpoint: 15.0°C (59°F) [RH = 54%]
Pressure (altimeter): 30.18 inches Hg (1022.0 mb)
Winds: from the WNW (300 degrees) at 3 MPH (3 knots; 1.5 m/s)
Visibility: 6 or more miles (10+ km)
Ceiling: at least 12,000 feet AGL
Clouds: few clouds at 3500 feet AGL
Weather: no significant weather observed at this time

METAR text: LEVC 070700Z 31006KT 280V340 9999 FEW035 24/15 Q1022 NOSIG
Conditions at: LEVC (VALENCIA (CIV/MI, ES) observed 0700 UTC 07 July 2022
Temperature: 24.0°C (75°F)
Dewpoint: 15.0°C (59°F) [RH = 57%]
Pressure (altimeter): 30.18 inches Hg (1022.0 mb)
Winds: from the NW (310 degrees) at 7 MPH (6 knots; 3.1 m/s)
Visibility: 6 or more miles (10+ km)
Ceiling: at least 12,000 feet AGL
Clouds: few clouds at 3500 feet AGL
Weather: no significant weather observed at this time

Forecast for: LEVC (VALENCIA (CIV/MI, ES)
Text: TAF LEVC 070500Z 0706/0806 VRB04KT 9999 FEW040 TX31/0712Z TN21/0706Z
Forecast period: 0600 to 1000 UTC 07 July 2022
Forecast type: FROM: standard forecast or significant change
Winds: variable direction winds at 5 MPH (4 knots; 2.1 m/s)
Visibility: 6 or more miles (10+ km)
Ceiling: at least 12,000 feet AGL
Clouds: few clouds at 4000 feet AGL
Weather: no significant weather forecast for this period
Text: BECMG 0710/0712 12010KT
Forecast period: 1000 to 1900 UTC 07 July 2022
Forecast type: BECOMING: Conditions expected to become as follows by 1200 UTC 07 July 2022
Winds: from the ESE (120 degrees) at 12 MPH (10 knots; 5.1 m/s)
Visibility: 6 or more miles (10+ km)
Ceiling: at least 12,000 feet AGL
Clouds: few clouds at 4000 feet AGL
Weather: no significant weather forecast for this period
Text: BECMG 0719/0721 VRB04KT
Forecast period: 1900 UTC 07 July 2022 to 0600 UTC 08 July 2022
Forecast type: BECOMING: Conditions expected to become as follows by 2100 UTC 07 July 2022
Winds: variable direction winds at 5 MPH (4 knots; 2.1 m/s)
Visibility: 6 or more miles (10+ km)
Ceiling: at least 12,000 feet AGL
Clouds: few clouds at 4000 feet AGL
Weather: no significant weather forecast for this period
Text: TEMPO 0802/0806 30010KT
Forecast period: 0200 to 0600 UTC 08 July 2022
Forecast type: TEMPORARY: The following changes expected for less than half the time period
Winds: from the WNW (300 degrees) at 12 MPH (10 knots; 5.1 m/s)
Visibility: missing
Ceiling: unknown
Clouds: missing
Weather: no significant weather forecast for this period